CheckWX is a tool to help pilots better visualize weather data.  It is not intended as a substitute for an official pre-flight weather briefing.

00:07:13 UTC

KSDL TAF
Scottsdale Airport
Scottsdale, Arizona, USA
KSDL 242339Z 2500/2524 21006KT P6SM SKC FM250200 VRB04KT P6SM SKC FM251600 02012G20KT P6SM SKC

Feb-25@
00:00 UTC

Feb-25 @ 00:00 UTC

Feb-25@
02:00 UTC

Feb-25 @ 02:00 UTC

KSDL 242339Z 2500/2524 21006KT P6SM SKC
Wind
  • 210° at 6 KTS
Cloud Levels
  • Clear skies

Feb-25@
02:00 UTC

Feb-25 @ 02:00 UTC

Feb-25@
16:00 UTC

Feb-25 @ 16:00 UTC

FM250200 VRB04KT P6SM SKC

From

From Standard forecast or significant change

Wind
  • Variable at 4 KTS
Cloud Levels
  • Clear skies

Feb-25@
16:00 UTC

Feb-25 @ 16:00 UTC

Feb-26@
00:00 UTC

Feb-26 @ 00:00 UTC

FM251600 02012G20KT P6SM SKC

From

From Standard forecast or significant change

Wind
  • 020° at 12 KTS
  • {Gusting to 20 KTS
Cloud Levels
  • Clear skies